Time;durP1;ratioP1;P1;durP2;ratioP2;P2;SDS_P1;SDS_P2;PMS_P1;PMS_P2;Temp;Humidity;BMP_temperature;BMP_pressure;BME280_temperature;BME280_humidity;BME280_pressure;Samples;Min_cycle;Max_cycle;Signal;HPM_P1;HPM_P2
2022/01/17 00:01:20;;;;;;;;;;;;;;;7.03;48.20;100163.34;4464238;32;34261;-67
2022/01/17 00:03:48;;;;;;;;;;;;;;;6.78;48.33;100151.34;4465161;32;34189;-70
2022/01/17 00:06:15;;;;;;;;;;;;;;;7.03;48.52;100150.03;4468750;32;34236;-69
2022/01/17 00:08:44;;;;;;;;;;;;;;;6.08;50.97;100139.88;4464740;32;34485;-69
2022/01/17 00:11:12;;;;;;;;;;;;;;;6.32;49.91;100134.25;4466644;32;34233;-68
2022/01/17 00:13:40;;;;;;;;;;;;;;;6.51;50.07;100135.00;4466186;32;35394;-69
2022/01/17 00:16:11;;;;;;;;;;;;;;;6.06;51.37;100136.41;4467387;32;34872;-68
2022/01/17 00:21:07;;;;;;;;;;;;;;;5.53;52.56;100143.38;4465893;32;32598;-72
2022/01/17 00:23:34;;;;;;;;;;;;;;;5.63;52.15;100142.94;4465930;32;35817;-67
2022/01/17 00:26:01;;;;;;;;;;;;;;;5.53;53.03;100154.00;4467307;32;34273;-67
2022/01/17 00:28:29;;;;;;;;;;;;;;;6.11;51.41;100150.34;4464004;32;33236;-69
2022/01/17 00:30:56;;;;;;;;;;;;;;;5.96;51.65;100148.44;4462701;32;33943;-69
2022/01/17 00:33:24;;;;;;;;;;;;;;;5.90;51.98;100140.75;4466871;32;34009;-67
2022/01/17 00:35:51;;;;;;;;;;;;;;;6.26;50.81;100138.94;4465532;32;34321;-66
2022/01/17 00:38:18;;;;;;;;;;;;;;;5.71;52.53;100148.75;4463180;32;33605;-67
2022/01/17 00:40:46;;;;;;;;;;;;;;;5.76;52.49;100138.78;4465703;32;34150;-68
2022/01/17 00:43:14;;;;;;;;;;;;;;;6.06;51.47;100147.03;4465976;32;34297;-67
2022/01/17 00:45:43;;;;;;;;;;;;;;;5.99;51.84;100150.94;4461844;32;33713;-67
2022/01/17 00:48:11;;;;;;;;;;;;;;;5.97;51.62;100151.03;4465822;32;33288;-70
2022/01/17 00:50:39;;;;;;;;;;;;;;;6.05;51.72;100148.00;4464319;32;34936;-67
2022/01/17 00:53:06;;;;;;;;;;;;;;;6.33;50.79;100149.28;4466115;32;34489;-67
2022/01/17 00:55:34;;;;;;;;;;;;;;;6.51;50.08;100140.34;4458989;32;32837;-69
2022/01/17 00:58:02;;;;;;;;;;;;;;;6.32;50.80;100152.84;4462442;32;33021;-72
2022/01/17 01:00:30;;;;;;;;;;;;;;;6.40;50.15;100159.50;4463262;32;33698;-69
2022/01/17 01:02:57;;;;;;;;;;;;;;;6.86;49.31;100145.63;4465106;32;35085;-68
2022/01/17 01:05:25;;;;;;;;;;;;;;;6.60;50.39;100144.31;4457816;32;37006;-71
2022/01/17 01:07:54;;;;;;;;;;;;;;;6.82;49.20;100155.56;4461747;32;33349;-66
2022/01/17 01:10:21;;;;;;;;;;;;;;;6.53;49.70;100157.94;4469035;32;35421;-68
2022/01/17 01:12:49;;;;;;;;;;;;;;;6.45;51.55;100157.50;4461462;32;35188;-71
2022/01/17 01:15:20;;;;;;;;;;;;;;;6.24;52.04;100147.94;4464398;32;33656;-67
2022/01/17 01:17:53;;;;;;;;;;;;;;;6.32;50.63;100135.09;4467727;32;33076;-68
2022/01/17 01:28:40;;;;;;;;;;;;;;;6.25;50.79;100129.22;4465436;32;33354;-72
2022/01/17 01:31:14;;;;;;;;;;;;;;;6.08;50.91;100115.94;4466782;32;33831;-70
2022/01/17 01:33:49;;;;;;;;;;;;;;;6.30;50.80;100111.25;4467477;32;34351;-66
2022/01/17 01:36:23;;;;;;;;;;;;;;;5.76;51.30;100102.44;4464193;32;33324;-68
2022/01/17 01:38:50;;;;;;;;;;;;;;;6.11;52.14;100118.47;4466950;32;34790;-67
2022/01/17 01:41:17;;;;;;;;;;;;;;;6.61;50.05;100111.47;4466634;32;33946;-70
2022/01/17 01:43:44;;;;;;;;;;;;;;;6.71;49.60;100112.72;4467576;32;34053;-73
2022/01/17 01:46:17;;;;;;;;;;;;;;;6.33;50.25;100110.25;4466004;32;34157;-69
2022/01/17 01:48:45;;;;;;;;;;;;;;;6.61;48.85;100114.13;4467926;32;33353;-70
2022/01/17 01:51:13;;;;;;;;;;;;;;;6.42;49.28;100108.91;4465504;32;34144;-70
2022/01/17 01:53:40;;;;;;;;;;;;;;;6.62;49.07;100114.06;4467537;32;32647;-70
2022/01/17 01:56:07;;;;;;;;;;;;;;;6.27;50.51;100102.59;4466052;32;35302;-69
2022/01/17 01:58:35;;;;;;;;;;;;;;;6.27;49.84;100106.09;4464775;32;33487;-70
2022/01/17 02:01:02;;;;;;;;;;;;;;;6.15;50.23;100112.03;4461271;32;35063;-70
2022/01/17 02:03:30;;;;;;;;;;;;;;;6.38;50.08;100107.34;4460550;32;33861;-69
2022/01/17 02:05:57;;;;;;;;;;;;;;;6.35;50.36;100110.16;4466819;32;34212;-71
2022/01/17 02:08:24;;;;;;;;;;;;;;;6.76;48.66;100110.66;4465351;32;33130;-69
2022/01/17 02:10:52;;;;;;;;;;;;;;;7.02;48.56;100124.38;4462623;32;34003;-69
2022/01/17 02:13:19;;;;;;;;;;;;;;;6.66;49.54;100128.91;4455934;32;33580;-69
2022/01/17 02:15:48;;;;;;;;;;;;;;;6.49;49.83;100118.31;4460677;32;34810;-68
2022/01/17 02:18:29;;;;;;;;;;;;;;;5.90;51.11;100114.16;4464019;32;34663;-68
2022/01/17 02:23:46;;;;;;;;;;;;;;;6.10;51.36;100103.47;4457250;32;35172;-72
2022/01/17 02:26:14;;;;;;;;;;;;;;;5.94;51.45;100114.00;4455919;32;33829;-72
2022/01/17 02:28:46;;;;;;;;;;;;;;;5.58;52.34;100098.88;4464313;32;34385;-72
2022/01/17 02:31:13;;;;;;;;;;;;;;;5.89;51.52;100096.53;4461567;32;34139;-73
2022/01/17 02:33:41;;;;;;;;;;;;;;;6.00;51.66;100099.53;4457321;32;34027;-74
2022/01/17 02:36:08;;;;;;;;;;;;;;;5.84;51.72;100102.03;4463733;32;35201;-73
2022/01/17 02:38:38;;;;;;;;;;;;;;;5.24;53.23;100074.91;4477242;32;33353;-73
2022/01/17 02:41:05;;;;;;;;;;;;;;;5.67;52.50;100092.25;4465762;32;33907;-70
2022/01/17 02:43:33;;;;;;;;;;;;;;;5.63;52.24;100074.75;4465192;32;35007;-74
2022/01/17 02:48:30;;;;;;;;;;;;;;;5.67;52.40;100081.63;4464163;32;33415;-70
2022/01/17 02:50:58;;;;;;;;;;;;;;;5.35;53.23;100067.28;4462792;32;35117;-71
2022/01/17 02:53:26;;;;;;;;;;;;;;;5.22;53.09;100061.69;4463300;32;35264;-74
2022/01/17 02:56:01;;;;;;;;;;;;;;;5.48;52.80;100064.88;4470157;32;33780;-71
2022/01/17 02:58:29;;;;;;;;;;;;;;;5.76;52.18;100067.06;4464380;32;33105;-69
2022/01/17 03:00:57;;;;;;;;;;;;;;;5.38;52.62;100051.19;4465875;32;34144;-69
2022/01/17 03:03:25;;;;;;;;;;;;;;;5.73;53.02;100056.56;4465064;32;33894;-69
2022/01/17 03:05:55;;;;;;;;;;;;;;;5.77;51.42;100055.47;4465585;32;35432;-70
2022/01/17 03:08:24;;;;;;;;;;;;;;;5.31;53.15;100032.06;4464498;32;33382;-70
2022/01/17 03:10:52;;;;;;;;;;;;;;;5.56;52.21;100029.06;4466791;32;34165;-71
2022/01/17 03:13:30;;;;;;;;;;;;;;;5.60;51.67;100020.00;4465235;32;34304;-69
2022/01/17 03:15:59;;;;;;;;;;;;;;;5.53;52.57;100015.09;4467138;32;33926;-70
2022/01/17 03:18:28;;;;;;;;;;;;;;;5.33;52.72;100026.69;4465778;32;34481;-70
2022/01/17 03:20:56;;;;;;;;;;;;;;;5.65;52.51;100021.56;4464952;32;33753;-70
2022/01/17 03:23:23;;;;;;;;;;;;;;;5.94;51.30;100025.44;4464440;32;34351;-71
2022/01/17 03:25:51;;;;;;;;;;;;;;;5.67;51.20;100022.34;4466806;32;35034;-69
2022/01/17 03:28:18;;;;;;;;;;;;;;;5.65;51.45;100027.75;4465129;32;33189;-71
2022/01/17 03:30:45;;;;;;;;;;;;;;;5.77;50.52;100021.81;4466581;32;33850;-73
2022/01/17 03:33:14;;;;;;;;;;;;;;;5.99;51.28;100036.69;4466438;32;34430;-70
2022/01/17 03:35:41;;;;;;;;;;;;;;;5.72;51.07;100042.44;4465138;32;34333;-70
2022/01/17 03:38:09;;;;;;;;;;;;;;;6.00;50.30;100041.06;4465033;32;33347;-69
2022/01/17 03:40:41;;;;;;;;;;;;;;;5.92;50.69;100052.06;4465440;32;34539;-71
2022/01/17 03:43:08;;;;;;;;;;;;;;;5.87;51.20;100066.50;4462072;32;34028;-72
2022/01/17 03:45:35;;;;;;;;;;;;;;;6.00;50.14;100078.25;4464031;32;34802;-72
2022/01/17 03:48:03;;;;;;;;;;;;;;;6.72;48.81;100087.81;4466773;32;32119;-71
2022/01/17 03:50:30;;;;;;;;;;;;;;;6.47;48.49;100088.25;4464404;32;34358;-71
2022/01/17 03:52:58;;;;;;;;;;;;;;;6.81;48.37;100086.47;4463518;32;34069;-70
2022/01/17 03:55:27;;;;;;;;;;;;;;;7.08;47.69;100069.00;4465595;32;35008;-72
2022/01/17 03:57:55;;;;;;;;;;;;;;;7.33;46.84;100079.16;4466546;32;34123;-69
2022/01/17 04:00:26;;;;;;;;;;;;;;;7.04;47.70;100085.22;4465069;32;32812;-69
2022/01/17 04:02:54;;;;;;;;;;;;;;;7.00;47.41;100089.88;4465397;32;35371;-71
2022/01/17 04:05:21;;;;;;;;;;;;;;;7.27;47.18;100091.94;4471570;32;33567;-68
2022/01/17 04:07:49;;;;;;;;;;;;;;;7.26;46.78;100096.41;4465146;32;32975;-71
2022/01/17 04:10:16;;;;;;;;;;;;;;;8.06;45.03;100084.72;4459999;32;34177;-70
2022/01/17 04:12:44;;;;;;;;;;;;;;;8.36;44.67;100090.03;4465163;32;33805;-71
2022/01/17 04:15:11;;;;;;;;;;;;;;;8.81;42.87;100082.88;4465063;32;33835;-70
2022/01/17 04:17:41;;;;;;;;;;;;;;;8.34;44.10;100080.41;4465767;32;33733;-70
2022/01/17 04:20:14;;;;;;;;;;;;;;;9.03;42.78;100087.72;4465624;32;33857;-69
2022/01/17 04:22:50;;;;;;;;;;;;;;;9.32;41.96;100090.34;4466037;32;35171;-70
2022/01/17 04:25:17;;;;;;;;;;;;;;;8.95;42.86;100095.34;4463379;32;34124;-70
2022/01/17 04:27:45;;;;;;;;;;;;;;;8.68;43.08;100095.25;4466605;32;34250;-71
2022/01/17 04:30:16;;;;;;;;;;;;;;;8.32;44.23;100096.50;4453065;32;35084;-72
2022/01/17 04:32:43;;;;;;;;;;;;;;;7.97;46.07;100103.91;4464666;32;33068;-71
2022/01/17 04:35:12;;;;;;;;;;;;;;;8.85;43.63;100112.88;4463896;32;33849;-73
2022/01/17 04:37:39;;;;;;;;;;;;;;;9.09;42.69;100107.84;4464379;32;33100;-73
2022/01/17 04:40:07;;;;;;;;;;;;;;;9.02;43.23;100103.81;4465137;32;34178;-70
2022/01/17 04:42:35;;;;;;;;;;;;;;;9.04;43.14;100099.25;4464612;32;34135;-70
2022/01/17 04:45:11;;;;;;;;;;;;;;;9.09;42.97;100097.16;4464434;31;35050;-71
2022/01/17 04:47:39;;;;;;;;;;;;;;;9.50;41.76;100091.84;4465488;32;32802;-70
2022/01/17 04:50:07;;;;;;;;;;;;;;;9.95;40.86;100087.13;4464734;32;34836;-69
2022/01/17 04:52:36;;;;;;;;;;;;;;;10.06;40.39;100074.84;4464664;32;34093;-73
2022/01/17 04:55:04;;;;;;;;;;;;;;;10.15;40.28;100083.09;4465654;32;35068;-72
2022/01/17 04:57:31;;;;;;;;;;;;;;;10.18;40.03;100068.66;4462060;32;32131;-70
2022/01/17 04:59:58;;;;;;;;;;;;;;;10.31;39.75;100064.22;4462991;32;35705;-71
2022/01/17 05:02:27;;;;;;;;;;;;;;;10.13;40.08;100063.59;4464630;32;34180;-71
2022/01/17 05:04:54;;;;;;;;;;;;;;;10.29;39.86;100052.75;4464581;32;33744;-71
2022/01/17 05:07:22;;;;;;;;;;;;;;;10.40;39.51;100052.88;4464092;31;34683;-71
2022/01/17 05:09:49;;;;;;;;;;;;;;;10.41;39.43;100069.78;4465938;32;34526;-71
2022/01/17 05:12:17;;;;;;;;;;;;;;;9.87;40.70;100072.53;4464487;32;33093;-70
2022/01/17 05:14:48;;;;;;;;;;;;;;;10.34;39.56;100066.69;4465552;32;35228;-70
2022/01/17 05:19:49;;;;;;;;;;;;;;;10.62;38.79;100075.47;4466306;32;33937;-70
2022/01/17 05:22:16;;;;;;;;;;;;;;;10.64;38.99;100079.75;4462553;32;33614;-70
2022/01/17 05:24:44;;;;;;;;;;;;;;;10.86;38.30;100086.28;4466842;32;34215;-73
2022/01/17 05:27:12;;;;;;;;;;;;;;;10.49;38.84;100081.66;4463555;32;33937;-73
2022/01/17 05:29:39;;;;;;;;;;;;;;;9.82;41.02;100085.34;4461272;32;34075;-72
2022/01/17 05:32:11;;;;;;;;;;;;;;;10.41;39.33;100080.50;4451888;32;33045;-75
2022/01/17 05:34:40;;;;;;;;;;;;;;;10.29;39.81;100068.81;4464976;32;33743;-72
2022/01/17 05:37:09;;;;;;;;;;;;;;;9.75;41.96;100056.34;4464636;32;33970;-69
2022/01/17 05:39:36;;;;;;;;;;;;;;;10.19;40.17;100067.69;4464844;32;33631;-69
2022/01/17 05:42:04;;;;;;;;;;;;;;;9.04;43.45;100054.72;4465420;32;33175;-69
2022/01/17 05:44:32;;;;;;;;;;;;;;;9.33;42.32;100043.97;4464028;32;33743;-70
2022/01/17 05:47:00;;;;;;;;;;;;;;;9.24;43.45;100036.56;4466309;32;34256;-74
2022/01/17 05:49:27;;;;;;;;;;;;;;;9.60;41.44;100038.66;4465299;32;34248;-71
2022/01/17 05:51:54;;;;;;;;;;;;;;;9.66;41.27;100046.28;4467506;32;33039;-73
2022/01/17 05:54:22;;;;;;;;;;;;;;;9.48;41.43;100034.13;4465797;32;32775;-73
2022/01/17 05:56:51;;;;;;;;;;;;;;;9.79;41.39;100028.47;4467791;32;34263;-76
2022/01/17 05:59:18;;;;;;;;;;;;;;;8.45;43.82;100029.97;4461240;32;32851;-74
2022/01/17 06:01:45;;;;;;;;;;;;;;;9.18;42.26;100026.28;4467385;32;34909;-74
2022/01/17 06:04:13;;;;;;;;;;;;;;;9.23;42.50;100026.84;4465441;32;33869;-73
2022/01/17 06:06:40;;;;;;;;;;;;;;;8.62;43.23;100024.44;4464211;32;32203;-76
2022/01/17 06:09:08;;;;;;;;;;;;;;;8.89;42.98;100025.47;4467511;32;35528;-74
2022/01/17 06:11:35;;;;;;;;;;;;;;;9.54;41.53;100031.06;4464690;32;35311;-76
2022/01/17 06:14:04;;;;;;;;;;;;;;;9.63;42.55;100032.22;4466331;32;34243;-74
2022/01/17 06:16:31;;;;;;;;;;;;;;;9.46;41.67;100023.53;4465664;31;33203;-74
2022/01/17 06:19:03;;;;;;;;;;;;;;;9.14;42.12;100024.75;4463991;32;34248;-76
2022/01/17 06:21:30;;;;;;;;;;;;;;;9.53;41.88;100035.53;4463805;32;34046;-74
2022/01/17 06:24:00;;;;;;;;;;;;;;;9.59;41.14;100036.06;4464786;32;34251;-73
2022/01/17 06:26:28;;;;;;;;;;;;;;;9.55;41.41;100046.97;4461451;32;32321;-78
2022/01/17 06:28:55;;;;;;;;;;;;;;;9.05;42.83;100026.19;4465723;32;33928;-69
2022/01/17 06:31:22;;;;;;;;;;;;;;;8.97;43.68;100032.03;4460825;32;36087;-69
2022/01/17 06:33:50;;;;;;;;;;;;;;;9.05;43.09;100032.44;4458927;32;34644;-69
2022/01/17 06:36:17;;;;;;;;;;;;;;;9.37;41.75;100026.78;4464700;32;33461;-69
2022/01/17 06:38:44;;;;;;;;;;;;;;;8.86;42.55;100026.53;4463727;32;34093;-70
2022/01/17 06:41:12;;;;;;;;;;;;;;;8.85;43.19;100024.81;4464435;32;34352;-68
2022/01/17 06:43:39;;;;;;;;;;;;;;;8.42;43.87;100022.16;4465620;32;34166;-71
2022/01/17 06:46:07;;;;;;;;;;;;;;;8.33;44.43;100010.19;4463606;32;31738;-71
2022/01/17 06:48:34;;;;;;;;;;;;;;;8.58;44.04;100006.06;4461816;32;32784;-69
2022/01/17 06:51:02;;;;;;;;;;;;;;;8.17;44.21;99993.41;4464617;32;33914;-70
2022/01/17 06:53:29;;;;;;;;;;;;;;;8.85;43.28;100006.97;4464258;32;35268;-69
2022/01/17 06:55:57;;;;;;;;;;;;;;;8.56;44.11;100007.94;4464609;32;33108;-68
2022/01/17 06:58:24;;;;;;;;;;;;;;;8.43;44.33;100009.66;4463992;32;32866;-71
2022/01/17 07:00:52;;;;;;;;;;;;;;;8.35;44.94;100005.63;4463864;32;34946;-71
2022/01/17 07:03:19;;;;;;;;;;;;;;;8.58;44.13;99990.06;4467548;32;34399;-70
2022/01/17 07:05:47;;;;;;;;;;;;;;;7.86;45.52;100002.41;4466735;32;34355;-75
2022/01/17 07:08:14;;;;;;;;;;;;;;;7.91;45.74;100000.31;4467531;32;36129;-76
2022/01/17 07:10:41;;;;;;;;;;;;;;;7.47;47.14;100001.97;4467419;32;33942;-74
2022/01/17 07:13:10;;;;;;;;;;;;;;;8.01;47.04;99993.50;4466328;32;33969;-74
2022/01/17 07:15:37;;;;;;;;;;;;;;;8.20;45.21;99984.38;4465971;32;34463;-75
2022/01/17 07:18:06;;;;;;;;;;;;;;;8.24;45.48;99980.56;4466782;32;34113;-75
2022/01/17 07:20:33;;;;;;;;;;;;;;;8.64;44.38;99984.31;4467808;32;34445;-75
2022/01/17 07:23:01;;;;;;;;;;;;;;;8.45;45.36;99976.63;4464079;32;34781;-72
2022/01/17 07:25:28;;;;;;;;;;;;;;;8.59;44.54;99981.06;4467808;32;33713;-73
2022/01/17 07:27:57;;;;;;;;;;;;;;;8.41;44.39;99988.44;4468252;32;34100;-75
2022/01/17 07:30:26;;;;;;;;;;;;;;;8.08;45.97;99997.50;4467761;32;34960;-73
2022/01/17 07:32:53;;;;;;;;;;;;;;;8.27;44.90;100015.91;4466271;32;34090;-73
2022/01/17 07:35:21;;;;;;;;;;;;;;;8.23;45.18;100022.38;4468334;32;33993;-74
2022/01/17 07:37:48;;;;;;;;;;;;;;;8.46;44.92;100030.81;4464146;32;32730;-75
2022/01/17 07:40:16;;;;;;;;;;;;;;;8.09;45.61;100041.00;4467861;32;35704;-73
2022/01/17 07:42:43;;;;;;;;;;;;;;;8.25;45.10;100051.59;4466396;32;33061;-76
2022/01/17 07:45:13;;;;;;;;;;;;;;;7.95;45.92;100087.13;4453659;32;33010;-76
2022/01/17 07:50:19;;;;;;;;;;;;;;;7.15;47.74;100110.28;4464276;32;33314;-75
2022/01/17 07:52:47;;;;;;;;;;;;;;;7.56;47.07;100096.50;4465433;32;34299;-73
2022/01/17 07:55:15;;;;;;;;;;;;;;;7.64;47.52;100064.97;4453220;32;31736;-74
2022/01/17 07:57:42;;;;;;;;;;;;;;;7.46;47.52;100050.87;4464060;32;33868;-74
2022/01/17 08:00:14;;;;;;;;;;;;;;;7.89;46.87;100036.84;4464903;32;35228;-74
2022/01/17 08:02:45;;;;;;;;;;;;;;;7.79;47.21;100025.88;4460909;32;33982;-73
2022/01/17 08:05:14;;;;;;;;;;;;;;;7.74;47.55;100027.09;4460582;32;33430;-75
2022/01/17 08:07:42;;;;;;;;;;;;;;;7.57;47.31;100044.91;4466476;32;33913;-73
2022/01/17 08:10:12;;;;;;;;;;;;;;;7.63;47.46;100036.56;4463997;32;33838;-74
2022/01/17 08:12:41;;;;;;;;;;;;;;;7.77;47.45;100030.47;4460641;32;34122;-74
2022/01/17 08:15:09;;;;;;;;;;;;;;;8.10;46.42;100016.06;4466272;32;33719;-74
2022/01/17 08:17:36;;;;;;;;;;;;;;;8.07;46.42;100013.59;4460228;32;33440;-73
2022/01/17 08:20:05;;;;;;;;;;;;;;;7.86;47.06;99995.25;4460753;32;34906;-73
2022/01/17 08:22:32;;;;;;;;;;;;;;;7.66;47.46;99993.78;4462906;32;34064;-74
2022/01/17 08:24:59;;;;;;;;;;;;;;;7.64;47.48;99977.03;4463128;32;34198;-76
2022/01/17 08:27:27;;;;;;;;;;;;;;;7.69;47.75;99972.28;4463225;32;33717;-74
2022/01/17 08:29:55;;;;;;;;;;;;;;;7.88;47.02;99974.72;4461113;32;34280;-74
2022/01/17 08:32:42;;;;;;;;;;;;;;;7.83;47.32;99966.16;4459636;32;35281;-76
2022/01/17 08:35:11;;;;;;;;;;;;;;;7.87;47.28;99975.66;4459916;32;33965;-74
2022/01/17 08:37:38;;;;;;;;;;;;;;;8.22;46.68;99971.78;4464662;32;34102;-74
2022/01/17 08:40:10;;;;;;;;;;;;;;;8.07;46.83;99985.13;4461468;32;34624;-73
2022/01/17 08:42:37;;;;;;;;;;;;;;;7.87;47.35;99989.00;4462775;32;34069;-74
2022/01/17 08:45:06;;;;;;;;;;;;;;;8.13;46.50;100005.22;4462229;32;34133;-74
2022/01/17 08:47:33;;;;;;;;;;;;;;;8.03;46.62;100022.75;4461042;32;32893;-72
2022/01/17 08:50:01;;;;;;;;;;;;;;;8.23;46.41;100032.19;4461612;32;34808;-74
2022/01/17 08:52:29;;;;;;;;;;;;;;;7.73;47.53;100030.72;4463132;32;35018;-73
2022/01/17 08:54:57;;;;;;;;;;;;;;;7.86;48.00;100027.22;4469141;32;33388;-73
2022/01/17 08:57:25;;;;;;;;;;;;;;;7.84;48.00;99989.19;4463337;32;33794;-75
2022/01/17 08:59:52;;;;;;;;;;;;;;;7.37;48.62;99970.66;4461497;32;33367;-74
2022/01/17 09:02:20;;;;;;;;;;;;;;;7.12;49.73;99977.38;4469242;32;34631;-74
2022/01/17 09:04:47;;;;;;;;;;;;;;;6.79;50.54;99929.59;4464019;32;33028;-74
2022/01/17 09:07:15;;;;;;;;;;;;;;;7.10;50.71;99955.31;4463516;32;32748;-73
2022/01/17 09:09:44;;;;;;;;;;;;;;;6.92;52.01;99956.37;4461809;32;33851;-73
2022/01/17 09:12:12;;;;;;;;;;;;;;;6.69;51.76;99977.13;4462565;32;33914;-74
2022/01/17 09:14:39;;;;;;;;;;;;;;;6.91;51.32;99962.63;4464988;32;33162;-76
2022/01/17 09:17:08;;;;;;;;;;;;;;;6.54;52.13;99948.69;4464512;32;34183;-73
2022/01/17 09:19:39;;;;;;;;;;;;;;;6.68;51.59;99954.13;4463873;32;34467;-74
2022/01/17 09:22:07;;;;;;;;;;;;;;;6.60;51.72;99956.34;4463616;32;34387;-74
2022/01/17 09:24:35;;;;;;;;;;;;;;;6.72;51.92;99950.34;4464550;32;33538;-76
2022/01/17 09:27:03;;;;;;;;;;;;;;;7.21;50.31;99944.06;4465124;32;33987;-74
2022/01/17 09:29:30;;;;;;;;;;;;;;;7.13;50.19;99939.19;4465596;32;34715;-74
2022/01/17 09:31:58;;;;;;;;;;;;;;;6.89;51.03;99940.56;4464770;32;34225;-74
2022/01/17 09:34:26;;;;;;;;;;;;;;;7.18;50.80;99938.91;4463963;32;33017;-65
2022/01/17 09:36:53;;;;;;;;;;;;;;;7.34;49.31;99942.38;4465721;32;32937;-66
2022/01/17 09:39:21;;;;;;;;;;;;;;;7.34;49.35;99926.41;4471033;32;34262;-67
2022/01/17 09:41:48;;;;;;;;;;;;;;;7.42;49.23;99925.97;4469689;32;34035;-66
2022/01/17 09:44:16;;;;;;;;;;;;;;;7.53;48.86;99930.66;4466287;32;33537;-67
2022/01/17 09:46:47;;;;;;;;;;;;;;;7.58;48.52;99907.28;4466550;32;35158;-68
2022/01/17 09:49:23;;;;;;;;;;;;;;;7.55;48.62;99902.16;4466117;32;34359;-67
2022/01/17 09:54:29;;;;;;;;;;;;;;;7.64;48.63;99878.47;4464783;32;33132;-69
2022/01/17 09:56:58;;;;;;;;;;;;;;;7.73;48.61;99860.19;4465897;32;33993;-68
2022/01/17 09:59:25;;;;;;;;;;;;;;;7.70;49.60;99870.09;4465452;32;33114;-68
2022/01/17 10:01:52;;;;;;;;;;;;;;;7.54;48.53;99879.09;4463161;32;34271;-69
2022/01/17 10:04:20;;;;;;;;;;;;;;;7.49;48.43;99876.72;4466056;32;33454;-68
2022/01/17 10:06:54;;;;;;;;;;;;;;;7.78;47.62;99866.97;4466162;32;35306;-67
2022/01/17 10:09:24;;;;;;;;;;;;;;;8.04;47.09;99862.69;4464710;32;34159;-68
2022/01/17 10:12:00;;;;;;;;;;;;;;;7.92;47.41;99863.44;4462834;32;34107;-69
2022/01/17 10:14:28;;;;;;;;;;;;;;;8.05;47.13;99860.88;4466518;32;33234;-71
2022/01/17 10:16:56;;;;;;;;;;;;;;;8.17;46.89;99865.44;4466208;32;34714;-67
2022/01/17 10:19:27;;;;;;;;;;;;;;;8.44;46.77;99872.66;4465586;32;34744;-71
2022/01/17 10:21:57;;;;;;;;;;;;;;;8.55;46.18;99876.38;4466802;32;34139;-69
2022/01/17 10:24:29;;;;;;;;;;;;;;;8.20;46.47;99848.41;4465657;32;34408;-69
2022/01/17 10:37:20;;;;;;;;;;;;;;;8.08;46.75;99829.53;4465120;32;33981;-69
2022/01/17 10:40:05;;;;;;;;;;;;;;;8.60;45.60;99831.59;4465363;32;34223;-68
2022/01/17 10:42:35;;;;;;;;;;;;;;;8.15;46.22;99817.56;4466042;32;34251;-68
2022/01/17 10:45:02;;;;;;;;;;;;;;;8.02;47.88;99807.75;4465975;32;35285;-69
2022/01/17 10:47:30;;;;;;;;;;;;;;;8.29;47.12;99794.50;4466296;32;35035;-68
2022/01/17 10:49:59;;;;;;;;;;;;;;;7.96;47.62;99806.34;4464859;32;34221;-67
2022/01/17 10:52:43;;;;;;;;;;;;;;;7.78;48.28;99818.16;4468569;32;33948;-67
2022/01/17 10:55:25;;;;;;;;;;;;;;;7.81;48.33;99801.97;4468780;32;33389;-69
2022/01/17 10:57:54;;;;;;;;;;;;;;;7.54;49.02;99807.19;4467228;32;32712;-66
2022/01/17 11:00:23;;;;;;;;;;;;;;;8.02;48.38;99781.94;4466343;32;34016;-66
2022/01/17 11:02:56;;;;;;;;;;;;;;;7.80;48.55;99761.16;4464017;32;34339;-67
2022/01/17 11:05:27;;;;;;;;;;;;;;;7.90;48.82;99766.75;4463886;32;32164;-67
2022/01/17 11:07:56;;;;;;;;;;;;;;;7.73;49.56;99766.94;4461836;32;34400;-66
2022/01/17 11:10:25;;;;;;;;;;;;;;;8.00;48.97;99751.03;4466956;32;34192;-67
2022/01/17 11:12:54;;;;;;;;;;;;;;;7.60;49.17;99756.19;4463023;32;34083;-67
2022/01/17 11:15:22;;;;;;;;;;;;;;;7.78;49.08;99748.87;4472954;32;33388;-65
2022/01/17 11:17:53;;;;;;;;;;;;;;;8.16;48.16;99747.28;4466575;32;32843;-66
2022/01/17 11:20:21;;;;;;;;;;;;;;;8.02;48.63;99738.44;4466253;32;34520;-69
2022/01/17 11:22:50;;;;;;;;;;;;;;;8.22;48.09;99734.47;4464544;32;33906;-67
2022/01/17 11:25:21;;;;;;;;;;;;;;;8.26;47.45;99726.19;4459775;32;32802;-69
2022/01/17 11:27:49;;;;;;;;;;;;;;;7.90;48.71;99716.12;4457186;32;33639;-67
2022/01/17 11:30:17;;;;;;;;;;;;;;;8.51;46.87;99709.47;4463405;32;34063;-69
2022/01/17 11:32:45;;;;;;;;;;;;;;;8.73;45.97;99700.00;4464990;32;34689;-67
2022/01/17 11:35:13;;;;;;;;;;;;;;;8.62;46.21;99714.94;4463827;32;31923;-66
2022/01/17 11:37:42;;;;;;;;;;;;;;;8.67;46.71;99708.41;4463358;32;32642;-66
2022/01/17 11:40:10;;;;;;;;;;;;;;;8.93;45.48;99720.03;4463632;32;34313;-66
2022/01/17 11:42:39;;;;;;;;;;;;;;;9.13;45.91;99724.00;4459732;32;33013;-66
2022/01/17 11:45:30;;;;;;;;;;;;;;;9.07;45.20;99720.75;4458164;32;33921;-67
2022/01/17 11:48:08;;;;;;;;;;;;;;;8.66;45.38;99718.25;4457668;32;33753;-66
2022/01/17 11:50:41;;;;;;;;;;;;;;;9.06;44.86;99724.41;4465504;32;33984;-68
2022/01/17 11:53:12;;;;;;;;;;;;;;;9.06;44.86;99716.41;4463983;32;34289;-67
2022/01/17 11:55:42;;;;;;;;;;;;;;;9.13;45.12;99734.66;4475506;32;32400;-67
2022/01/17 11:58:19;;;;;;;;;;;;;;;9.02;44.70;99727.37;4466410;32;33922;-67
2022/01/17 12:00:47;;;;;;;;;;;;;;;9.06;44.04;99713.72;4463672;32;34028;-68
2022/01/17 12:03:16;;;;;;;;;;;;;;;9.22;44.45;99710.00;4464671;32;34119;-67
2022/01/17 12:05:43;;;;;;;;;;;;;;;9.27;44.12;99684.66;4462448;32;33487;-67
2022/01/17 12:08:11;;;;;;;;;;;;;;;9.53;43.84;99685.50;4465942;32;32856;-67
2022/01/17 12:10:40;;;;;;;;;;;;;;;9.67;43.99;99678.31;4464955;32;34175;-68
2022/01/17 12:13:22;;;;;;;;;;;;;;;9.37;44.71;99652.81;4461865;32;34882;-67
2022/01/17 12:16:18;;;;;;;;;;;;;;;9.21;44.14;99657.53;4462669;32;33016;-67
2022/01/17 12:18:49;;;;;;;;;;;;;;;9.04;45.49;99678.25;4455951;32;33688;-67
2022/01/17 12:21:17;;;;;;;;;;;;;;;9.50;44.17;99675.03;4463003;32;33276;-69
2022/01/17 12:23:45;;;;;;;;;;;;;;;9.29;44.48;99663.19;4465131;31;34185;-70
2022/01/17 12:26:34;;;;;;;;;;;;;;;9.51;43.78;99658.03;4461264;32;33660;-71
2022/01/17 12:29:02;;;;;;;;;;;;;;;9.19;44.54;99640.78;4456775;32;33984;-67
2022/01/17 12:31:40;;;;;;;;;;;;;;;9.04;45.11;99635.53;4460699;32;33676;-67
2022/01/17 12:34:16;;;;;;;;;;;;;;;9.07;45.29;99618.47;4461940;32;34123;-70
2022/01/17 12:36:46;;;;;;;;;;;;;;;9.29;44.53;99615.97;4455619;32;34424;-67
2022/01/17 12:39:15;;;;;;;;;;;;;;;9.06;44.78;99608.75;4457034;32;33986;-68
2022/01/17 12:41:44;;;;;;;;;;;;;;;9.51;44.53;99606.41;4458626;32;34408;-68
2022/01/17 12:44:14;;;;;;;;;;;;;;;9.08;44.76;99612.16;4461074;32;34819;-67
2022/01/17 12:46:42;;;;;;;;;;;;;;;9.14;44.56;99624.22;4463501;32;34891;-67
2022/01/17 12:49:10;;;;;;;;;;;;;;;8.29;46.55;99626.50;4460513;32;35169;-65
2022/01/17 12:51:41;;;;;;;;;;;;;;;8.94;45.28;99634.47;4463490;32;35457;-68
2022/01/17 12:54:11;;;;;;;;;;;;;;;9.01;45.49;99613.53;4463140;32;35640;-66
2022/01/17 12:56:42;;;;;;;;;;;;;;;9.57;44.01;99633.53;4462400;31;33222;-68
2022/01/17 12:59:09;;;;;;;;;;;;;;;9.59;44.16;99636.09;4463134;32;33609;-67
2022/01/17 13:01:42;;;;;;;;;;;;;;;9.02;44.74;99620.59;4462824;32;33016;-69
2022/01/17 13:04:12;;;;;;;;;;;;;;;8.82;44.91;99624.66;4462993;32;33792;-67
2022/01/17 13:06:40;;;;;;;;;;;;;;;9.50;43.37;99608.25;4462987;32;32990;-67
2022/01/17 13:09:08;;;;;;;;;;;;;;;8.90;44.71;99600.13;4460714;32;34091;-67
2022/01/17 13:11:37;;;;;;;;;;;;;;;8.84;44.71;99593.38;4450538;32;34193;-67
2022/01/17 13:14:04;;;;;;;;;;;;;;;9.09;45.00;99606.72;4467917;32;33991;-67
2022/01/17 13:16:35;;;;;;;;;;;;;;;9.11;45.39;99627.94;4462388;32;33491;-69
2022/01/17 13:19:04;;;;;;;;;;;;;;;9.05;44.43;99597.22;4460702;32;34074;-68
2022/01/17 13:21:31;;;;;;;;;;;;;;;9.17;44.12;99599.97;4462907;32;35555;-67
2022/01/17 13:26:30;;;;;;;;;;;;;;;8.66;45.33;99614.19;4456394;32;33613;-69
2022/01/17 13:28:59;;;;;;;;;;;;;;;8.63;46.59;99588.59;4464677;32;35237;-69
2022/01/17 13:31:28;;;;;;;;;;;;;;;8.47;46.45;99563.91;4464435;32;34202;-68
2022/01/17 13:33:56;;;;;;;;;;;;;;;8.60;45.74;99571.91;4460254;32;35049;-70
2022/01/17 13:36:23;;;;;;;;;;;;;;;8.83;45.93;99552.50;4459496;32;33591;-67